62.7°F
Current conditions from King Hill
Updated every 5 minutes
 
  Sunday September 21, 2014

Station Historical Data
Daily Summary for January 21, 2012 Units:  Both    English   Metric
« Previous Day
Next Day »
Daily Weekly Monthly Yearly Custom
  High: Low: Average:
Temperature: 16.9 °F /  -8.4 °C 0.1 °F /  -17.7 °C 7.3 °F /  -13.7 °C
Dew Point: 6.8 °F /  -14 °C -6.3 °F /  -21.3 °C 0.3 °F /  -17.6 °C
Humidity: 81% 60% 73%
Wind Speed: 3.0mph /  4.8km/h - 1.2mph /  1.9km/h
Wind Gust: 6.0mph /  9.7km/h - -
Wind- - NE
Pressure: 30.38 in /  1028.7 hPa 30.19 in /  1022.2 hPa -
Precipitation: 0.00 in /  0 mm    
Historical Graphs
 
 
Tabular Data for January 21, 2012
Time Temperature Dew Point Pressure Wind Wind Speed Wind Gust Humidity Daily Rainfall
00:00 2.5 °F /  -16.4 °C -6.3 °F /  -21.3 °C 30.29in /  1025.6hPa ENE 1.0mph /  1.6km/h 3.0mph /  4.8km/h 66% 0.00in /  0mm
00:05 2.6 °F /  -16.3 °C -6.2 °F /  -21.2 °C 30.29in /  1025.6hPa Calm   3.0mph /  4.8km/h 66% 0.00in /  0mm
00:10 2.6 °F /  -16.3 °C -5.9 °F /  -21.1 °C 30.28in /  1025.3hPa Calm     67% 0.00in /  0mm
00:15 2.6 °F /  -16.3 °C -5.9 °F /  -21.1 °C 30.28in /  1025.3hPa Calm     67% 0.00in /  0mm
00:20 2.8 °F /  -16.2 °C -5.7 °F /  -20.9 °C 30.28in /  1025.3hPa Calm     67% 0.00in /  0mm
00:25 2.7 °F /  -16.3 °C -5.8 °F /  -21 °C 30.28in /  1025.3hPa Calm     67% 0.00in /  0mm
00:30 2.7 °F /  -16.3 °C -5.5 °F /  -20.8 °C 30.28in /  1025.3hPa Calm   2.0mph /  3.2km/h 68% 0.00in /  0mm
00:35 2.6 °F /  -16.3 °C -5.6 °F /  -20.9 °C 30.29in /  1025.6hPa Calm   2.0mph /  3.2km/h 68% 0.00in /  0mm
00:40 2.4 °F /  -16.4 °C -5.4 °F /  -20.8 °C 30.29in /  1025.6hPa Calm     69% 0.00in /  0mm
00:45 2.3 °F /  -16.5 °C -5.5 °F /  -20.8 °C 30.28in /  1025.3hPa Calm     69% 0.00in /  0mm
00:50 2.3 °F /  -16.5 °C -5.5 °F /  -20.8 °C 30.29in /  1025.6hPa Calm     69% 0.00in /  0mm
00:55 2.3 °F /  -16.5 °C -5.2 °F /  -20.7 °C 30.28in /  1025.3hPa Calm     70% 0.00in /  0mm
01:00 2.4 °F /  -16.4 °C -4.9 °F /  -20.5 °C 30.29in /  1025.6hPa Calm     71% 0.00in /  0mm
01:05 2.6 °F /  -16.3 °C -4.7 °F /  -20.4 °C 30.28in /  1025.3hPa Calm   1.0mph /  1.6km/h 71% 0.00in /  0mm
01:10 2.7 °F /  -16.3 °C -4.6 °F /  -20.3 °C 30.28in /  1025.3hPa Calm   1.0mph /  1.6km/h 71% 0.00in /  0mm
01:15 2.8 °F /  -16.2 °C -4.5 °F /  -20.3 °C 30.29in /  1025.6hPa Calm   2.0mph /  3.2km/h 71% 0.00in /  0mm
01:20 2.8 °F /  -16.2 °C -4.5 °F /  -20.3 °C 30.29in /  1025.6hPa Calm   2.0mph /  3.2km/h 71% 0.00in /  0mm
01:25 2.9 °F /  -16.2 °C -4.7 °F /  -20.4 °C 30.29in /  1025.6hPa Calm     70% 0.00in /  0mm
01:30 2.9 °F /  -16.2 °C -4.7 °F /  -20.4 °C 30.29in /  1025.6hPa Calm     70% 0.00in /  0mm
01:35 3.0 °F /  -16.1 °C -4.9 °F /  -20.5 °C 30.29in /  1025.6hPa Calm     69% 0.00in /  0mm
01:40 3.0 °F /  -16.1 °C -4.9 °F /  -20.5 °C 30.28in /  1025.3hPa Calm     69% 0.00in /  0mm
01:45 3.1 °F /  -16.1 °C -4.5 °F /  -20.3 °C 30.28in /  1025.3hPa Calm     70% 0.00in /  0mm
01:50 3.2 °F /  -16 °C -4.4 °F /  -20.2 °C 30.28in /  1025.3hPa Calm     70% 0.00in /  0mm
01:55 3.4 °F /  -15.9 °C -4.2 °F /  -20.1 °C 30.28in /  1025.3hPa Calm     70% 0.00in /  0mm
02:00 3.5 °F /  -15.8 °C -4.1 °F /  -20.1 °C 30.28in /  1025.3hPa Calm     70% 0.00in /  0mm
02:05 3.6 °F /  -15.8 °C -4.0 °F /  -20 °C 30.28in /  1025.3hPa Calm     70% 0.00in /  0mm
02:10 3.7 °F /  -15.7 °C -3.9 °F /  -19.9 °C 30.28in /  1025.3hPa Calm     70% 0.00in /  0mm
02:15 3.9 °F /  -15.6 °C -3.7 °F /  -19.8 °C 30.28in /  1025.3hPa Calm     70% 0.00in /  0mm
02:20 4.1 °F /  -15.5 °C -3.5 °F /  -19.7 °C 30.28in /  1025.3hPa Calm     70% 0.00in /  0mm
02:25 4.3 °F /  -15.4 °C -3.6 °F /  -19.8 °C 30.28in /  1025.3hPa Calm     69% 0.00in /  0mm
02:35 4.5 °F /  -15.3 °C -3.4 °F /  -19.7 °C 30.28in /  1025.3hPa Calm     69% 0.00in /  0mm
02:40 4.6 °F /  -15.2 °C -3.3 °F /  -19.6 °C 30.28in /  1025.3hPa Calm     69% 0.00in /  0mm
02:45 4.7 °F /  -15.2 °C -3.5 °F /  -19.7 °C 30.28in /  1025.3hPa Calm     68% 0.00in /  0mm
02:50 4.8 °F /  -15.1 °C -3.4 °F /  -19.7 °C 30.28in /  1025.3hPa Calm     68% 0.00in /  0mm
02:55 4.9 °F /  -15.1 °C -3.4 °F /  -19.7 °C 30.28in /  1025.3hPa Calm     68% 0.00in /  0mm
03:00 5.0 °F /  -15 °C -1.2 °F /  -18.4 °C 30.28in /  1025.3hPa Calm     75% 0.00in /  0mm
03:05 5.1 °F /  -14.9 °C -3.5 °F /  -19.7 °C 30.27in /  1024.9hPa Calm     67% 0.00in /  0mm
03:10 5.2 °F /  -14.9 °C -3.7 °F /  -19.8 °C 30.27in /  1024.9hPa Calm     66% 0.00in /  0mm
03:15 5.3 °F /  -14.8 °C -3.9 °F /  -19.9 °C 30.27in /  1024.9hPa Calm     65% 0.00in /  0mm
03:20 5.4 °F /  -14.8 °C -3.8 °F /  -19.9 °C 30.26in /  1024.6hPa Calm     65% 0.00in /  0mm
03:30 5.4 °F /  -14.8 °C -4.1 °F /  -20.1 °C 30.26in /  1024.6hPa Calm     64% 0.00in /  0mm
03:35 5.5 °F /  -14.7 °C -4.4 °F /  -20.2 °C 30.26in /  1024.6hPa Calm     63% 0.00in /  0mm
03:40 5.5 °F /  -14.7 °C -4.7 °F /  -20.4 °C 30.26in /  1024.6hPa Calm     62% 0.00in /  0mm
03:45 5.7 °F /  -14.6 °C -4.5 °F /  -20.3 °C 30.26in /  1024.6hPa Calm   1.0mph /  1.6km/h 62% 0.00in /  0mm
03:50 5.8 °F /  -14.6 °C -4.8 °F /  -20.4 °C 30.26in /  1024.6hPa Calm   1.0mph /  1.6km/h 61% 0.00in /  0mm
03:55 5.8 °F /  -14.6 °C -5.1 °F /  -20.6 °C 30.26in /  1024.6hPa Calm   3.0mph /  4.8km/h 60% 0.00in /  0mm
04:00 5.8 °F /  -14.6 °C -4.8 °F /  -20.4 °C 30.25in /  1024.3hPa Calm   3.0mph /  4.8km/h 61% 0.00in /  0mm
04:05 5.6 °F /  -14.7 °C -5.0 °F /  -20.6 °C 30.25in /  1024.3hPa Calm   2.0mph /  3.2km/h 61% 0.00in /  0mm
04:10 5.4 °F /  -14.8 °C -5.1 °F /  -20.6 °C 30.25in /  1024.3hPa Calm   2.0mph /  3.2km/h 61% 0.00in /  0mm
04:15 5.2 °F /  -14.9 °C -5.0 °F /  -20.6 °C 30.25in /  1024.3hPa Calm   2.0mph /  3.2km/h 62% 0.00in /  0mm
04:20 5.0 °F /  -15 °C -2.9 °F /  -19.4 °C 30.25in /  1024.3hPa Calm   3.0mph /  4.8km/h 69% 0.00in /  0mm
04:25 4.9 °F /  -15.1 °C -4.9 °F /  -20.5 °C 30.24in /  1023.9hPa Calm   3.0mph /  4.8km/h 63% 0.00in /  0mm
04:30 5.0 °F /  -15 °C -4.5 °F /  -20.3 °C 30.24in /  1023.9hPa Calm     64% 0.00in /  0mm
04:35 5.0 °F /  -15 °C -4.5 °F /  -20.3 °C 30.24in /  1023.9hPa Calm     64% 0.00in /  0mm
04:45 5.0 °F /  -15 °C -1.8 °F /  -18.8 °C 30.24in /  1023.9hPa Calm     73% 0.00in /  0mm
04:50 5.0 °F /  -15 °C -3.9 °F /  -19.9 °C 30.24in /  1023.9hPa Calm     66% 0.00in /  0mm
04:55 5.1 °F /  -14.9 °C -3.8 °F /  -19.9 °C 30.24in /  1023.9hPa Calm     66% 0.00in /  0mm
05:00 5.1 °F /  -14.9 °C -3.5 °F /  -19.7 °C 30.24in /  1023.9hPa Calm     67% 0.00in /  0mm
05:05 5.1 °F /  -14.9 °C -3.8 °F /  -19.9 °C 30.23in /  1023.6hPa Calm     66% 0.00in /  0mm
05:10 5.2 °F /  -14.9 °C -3.4 °F /  -19.7 °C 30.23in /  1023.6hPa Calm     67% 0.00in /  0mm
05:15 5.2 °F /  -14.9 °C -3.4 °F /  -19.7 °C 30.23in /  1023.6hPa Calm     67% 0.00in /  0mm
05:20 5.3 °F /  -14.8 °C -3.3 °F /  -19.6 °C 30.22in /  1023.2hPa Calm   1.0mph /  1.6km/h 67% 0.00in /  0mm
05:25 5.3 °F /  -14.8 °C -3.0 °F /  -19.4 °C 30.22in /  1023.2hPa Calm   2.0mph /  3.2km/h 68% 0.00in /  0mm
05:30 5.3 °F /  -14.8 °C -3.0 °F /  -19.4 °C 30.21in /  1022.9hPa Calm   2.0mph /  3.2km/h 68% 0.00in /  0mm
05:35 5.3 °F /  -14.8 °C -2.7 °F /  -19.3 °C 30.21in /  1022.9hPa Calm   1.0mph /  1.6km/h 69% 0.00in /  0mm
05:40 5.2 °F /  -14.9 °C -2.5 °F /  -19.2 °C 30.21in /  1022.9hPa Calm   2.0mph /  3.2km/h 70% 0.00in /  0mm
05:50 5.1 °F /  -14.9 °C -2.3 °F /  -19.1 °C 30.21in /  1022.9hPa Calm   3.0mph /  4.8km/h 71% 0.00in /  0mm
05:55 5.1 °F /  -14.9 °C -2.0 °F /  -18.9 °C 30.21in /  1022.9hPa Calm   4.0mph /  6.4km/h 72% 0.00in /  0mm
06:00 5.0 °F /  -15 °C -1.8 °F /  -18.8 °C 30.20in /  1022.6hPa ENE 2.0mph /  3.2km/h 5.0mph /  8km/h 73% 0.00in /  0mm
06:05 4.9 °F /  -15.1 °C -1.9 °F /  -18.8 °C 30.21in /  1022.9hPa ENE 1.0mph /  1.6km/h 5.0mph /  8km/h 73% 0.00in /  0mm
06:10 4.9 °F /  -15.1 °C -1.6 °F /  -18.7 °C 30.21in /  1022.9hPa Calm   3.0mph /  4.8km/h 74% 0.00in /  0mm
06:15 4.9 °F /  -15.1 °C -1.3 °F /  -18.5 °C 30.21in /  1022.9hPa Calm   3.0mph /  4.8km/h 75% 0.00in /  0mm
06:20 4.9 °F /  -15.1 °C -1.3 °F /  -18.5 °C 30.21in /  1022.9hPa Calm   2.0mph /  3.2km/h 75% 0.00in /  0mm
06:30 4.9 °F /  -15.1 °C -1.0 °F /  -18.3 °C 30.21in /  1022.9hPa Calm   2.0mph /  3.2km/h 76% 0.00in /  0mm
06:35 4.9 °F /  -15.1 °C -1.0 °F /  -18.3 °C 30.21in /  1022.9hPa Calm     76% 0.00in /  0mm
06:40 5.0 °F /  -15 °C -0.9 °F /  -18.3 °C 30.21in /  1022.9hPa Calm     76% 0.00in /  0mm
06:45 5.1 °F /  -14.9 °C -0.5 °F /  -18.1 °C 30.21in /  1022.9hPa Calm   3.0mph /  4.8km/h 77% 0.00in /  0mm
06:50 5.1 °F /  -14.9 °C -0.8 °F /  -18.2 °C 30.21in /  1022.9hPa Calm   3.0mph /  4.8km/h 76% 0.00in /  0mm
06:55 5.1 °F /  -14.9 °C -0.8 °F /  -18.2 °C 30.22in /  1023.2hPa Calm   2.0mph /  3.2km/h 76% 0.00in /  0mm
07:00 5.0 °F /  -15 °C -0.9 °F /  -18.3 °C 30.22in /  1023.2hPa Calm   3.0mph /  4.8km/h 76% 0.00in /  0mm
07:10 5.0 °F /  -15 °C -0.6 °F /  -18.1 °C 30.22in /  1023.2hPa Calm   3.0mph /  4.8km/h 77% 0.00in /  0mm
07:15 5.0 °F /  -15 °C -0.6 °F /  -18.1 °C 30.22in /  1023.2hPa Calm   3.0mph /  4.8km/h 77% 0.00in /  0mm
07:20 5.0 °F /  -15 °C -0.6 °F /  -18.1 °C 30.22in /  1023.2hPa Calm     77% 0.00in /  0mm
07:25 5.1 °F /  -14.9 °C -0.5 °F /  -18.1 °C 30.22in /  1023.2hPa Calm     77% 0.00in /  0mm
07:30 5.1 °F /  -14.9 °C -0.5 °F /  -18.1 °C 30.22in /  1023.2hPa Calm     77% 0.00in /  0mm
07:35 5.0 °F /  -15 °C -0.6 °F /  -18.1 °C 30.22in /  1023.2hPa Calm   1.0mph /  1.6km/h 77% 0.00in /  0mm
07:45 5.0 °F /  -15 °C -0.6 °F /  -18.1 °C 30.22in /  1023.2hPa Calm   2.0mph /  3.2km/h 77% 0.00in /  0mm
07:55 5.0 °F /  -15 °C -0.6 °F /  -18.1 °C 30.22in /  1023.2hPa Calm   1.0mph /  1.6km/h 77% 0.00in /  0mm
08:00 5.0 °F /  -15 °C -0.6 °F /  -18.1 °C 30.23in /  1023.6hPa Calm   2.0mph /  3.2km/h 77% 0.00in /  0mm
08:05 5.1 °F /  -14.9 °C -0.5 °F /  -18.1 °C 30.23in /  1023.6hPa Calm   2.0mph /  3.2km/h 77% 0.00in /  0mm
08:10 5.1 °F /  -14.9 °C -0.3 °F /  -17.9 °C 30.23in /  1023.6hPa Calm   1.0mph /  1.6km/h 78% 0.00in /  0mm
08:15 5.2 °F /  -14.9 °C -0.4 °F /  -18 °C 30.23in /  1023.6hPa Calm   1.0mph /  1.6km/h 77% 0.00in /  0mm
08:20 5.2 °F /  -14.9 °C -0.4 °F /  -18 °C 30.24in /  1023.9hPa Calm     77% 0.00in /  0mm
08:30 5.3 °F /  -14.8 °C -0.3 °F /  -17.9 °C 30.23in /  1023.6hPa Calm   1.0mph /  1.6km/h 77% 0.00in /  0mm
08:35 5.3 °F /  -14.8 °C -0.3 °F /  -17.9 °C 30.23in /  1023.6hPa Calm   1.0mph /  1.6km/h 77% 0.00in /  0mm
08:40 5.4 °F /  -14.8 °C -0.2 °F /  -17.9 °C 30.23in /  1023.6hPa Calm     77% 0.00in /  0mm
08:45 5.6 °F /  -14.7 °C 0.0 °F /  -17.8 °C 30.23in /  1023.6hPa Calm     77% 0.00in /  0mm
08:50 5.7 °F /  -14.6 °C 0.1 °F /  -17.7 °C 30.23in /  1023.6hPa Calm     77% 0.00in /  0mm
08:55 5.8 °F /  -14.6 °C 0.1 °F /  -17.7 °C 30.23in /  1023.6hPa Calm     77% 0.00in /  0mm
09:00 6.0 °F /  -14.4 °C 0.3 °F /  -17.6 °C 30.23in /  1023.6hPa Calm   1.0mph /  1.6km/h 77% 0.00in /  0mm
09:05 6.2 °F /  -14.3 °C 0.5 °F /  -17.5 °C 30.23in /  1023.6hPa Calm   1.0mph /  1.6km/h 77% 0.00in /  0mm
09:10 6.4 °F /  -14.2 °C 0.7 °F /  -17.4 °C 30.23in /  1023.6hPa Calm     77% 0.00in /  0mm
09:15 6.5 °F /  -14.2 °C 0.5 °F /  -17.5 °C 30.23in /  1023.6hPa Calm   2.0mph /  3.2km/h 76% 0.00in /  0mm
09:20 6.7 °F /  -14.1 °C 0.7 °F /  -17.4 °C 30.23in /  1023.6hPa Calm   2.0mph /  3.2km/h 76% 0.00in /  0mm
09:25 6.5 °F /  -14.2 °C 0.5 °F /  -17.5 °C 30.23in /  1023.6hPa Calm   3.0mph /  4.8km/h 76% 0.00in /  0mm
09:35 6.7 °F /  -14.1 °C 0.7 °F /  -17.4 °C 30.23in /  1023.6hPa Calm   2.0mph /  3.2km/h 76% 0.00in /  0mm
09:40 7.0 °F /  -13.9 °C 1.0 °F /  -17.2 °C 30.23in /  1023.6hPa Calm     76% 0.00in /  0mm
09:45 7.2 °F /  -13.8 °C 1.2 °F /  -17.1 °C 30.23in /  1023.6hPa Calm   2.0mph /  3.2km/h 76% 0.00in /  0mm
09:55 7.6 °F /  -13.6 °C 1.6 °F /  -16.9 °C 30.23in /  1023.6hPa Calm   1.0mph /  1.6km/h 76% 0.00in /  0mm
10:00 7.7 °F /  -13.5 °C 1.4 °F /  -17 °C 30.22in /  1023.2hPa Calm   2.0mph /  3.2km/h 75% 0.00in /  0mm
10:05 7.8 °F /  -13.4 °C 1.5 °F /  -16.9 °C 30.22in /  1023.2hPa East 1.0mph /  1.6km/h 2.0mph /  3.2km/h 75% 0.00in /  0mm
10:10 8.2 °F /  -13.2 °C 2.2 °F /  -16.6 °C 30.23in /  1023.6hPa Calm   2.0mph /  3.2km/h 76% 0.00in /  0mm
10:15 8.4 °F /  -13.1 °C 2.1 °F /  -16.6 °C 30.23in /  1023.6hPa Calm   2.0mph /  3.2km/h 75% 0.00in /  0mm
10:20 8.7 °F /  -12.9 °C 2.4 °F /  -16.4 °C 30.23in /  1023.6hPa Calm   2.0mph /  3.2km/h 75% 0.00in /  0mm
10:25 8.9 °F /  -12.8 °C 2.6 °F /  -16.3 °C 30.22in /  1023.2hPa East 1.0mph /  1.6km/h 2.0mph /  3.2km/h 75% 0.00in /  0mm
10:30 9.1 °F /  -12.7 °C 2.8 °F /  -16.2 °C 30.23in /  1023.6hPa Calm   2.0mph /  3.2km/h 75% 0.00in /  0mm
10:35 9.1 °F /  -12.7 °C 2.5 °F /  -16.4 °C 30.22in /  1023.2hPa East 1.0mph /  1.6km/h 3.0mph /  4.8km/h 74% 0.00in /  0mm
10:40 9.1 °F /  -12.7 °C 2.5 °F /  -16.4 °C 30.22in /  1023.2hPa East 1.0mph /  1.6km/h 3.0mph /  4.8km/h 74% 0.00in /  0mm
10:45 9.0 °F /  -12.8 °C 2.7 °F /  -16.3 °C 30.22in /  1023.2hPa East 1.0mph /  1.6km/h 5.0mph /  8km/h 75% 0.00in /  0mm
10:50 9.1 °F /  -12.7 °C 2.5 °F /  -16.4 °C 30.22in /  1023.2hPa East 1.0mph /  1.6km/h 5.0mph /  8km/h 74% 0.00in /  0mm
10:55 9.3 °F /  -12.6 °C 3.0 °F /  -16.1 °C 30.21in /  1022.9hPa Calm   5.0mph /  8km/h 75% 0.00in /  0mm
11:00 9.7 °F /  -12.4 °C 3.4 °F /  -15.9 °C 30.21in /  1022.9hPa Calm   3.0mph /  4.8km/h 75% 0.00in /  0mm
11:05 10.0 °F /  -12.2 °C 3.7 °F /  -15.7 °C 30.21in /  1022.9hPa Calm   2.0mph /  3.2km/h 75% 0.00in /  0mm
11:10 10.1 °F /  -12.2 °C 3.5 °F /  -15.8 °C 30.21in /  1022.9hPa Calm   2.0mph /  3.2km/h 74% 0.00in /  0mm
11:15 10.5 °F /  -11.9 °C 4.1 °F /  -15.5 °C 30.21in /  1022.9hPa Calm   1.0mph /  1.6km/h 75% 0.00in /  0mm
11:20 10.7 °F /  -11.8 °C 4.0 °F /  -15.6 °C 30.20in /  1022.6hPa Calm   1.0mph /  1.6km/h 74% 0.00in /  0mm
11:30 11.6 °F /  -11.3 °C 4.6 °F /  -15.2 °C 30.20in /  1022.6hPa Calm   1.0mph /  1.6km/h 73% 0.00in /  0mm
11:35 11.8 °F /  -11.2 °C 4.8 °F /  -15.1 °C 30.20in /  1022.6hPa Calm   3.0mph /  4.8km/h 73% 0.00in /  0mm
11:40 12.2 °F /  -11 °C 4.9 °F /  -15.1 °C 30.20in /  1022.6hPa East 1.0mph /  1.6km/h 5.0mph /  8km/h 72% 0.00in /  0mm
11:45 12.4 °F /  -10.9 °C 5.1 °F /  -14.9 °C 30.20in /  1022.6hPa Calm   5.0mph /  8km/h 72% 0.00in /  0mm
11:50 12.6 °F /  -10.8 °C 5.3 °F /  -14.8 °C 30.20in /  1022.6hPa Calm   3.0mph /  4.8km/h 72% 0.00in /  0mm
11:55 12.9 °F /  -10.6 °C 5.3 °F /  -14.8 °C 30.20in /  1022.6hPa North 1.0mph /  1.6km/h 3.0mph /  4.8km/h 71% 0.00in /  0mm
12:00 13.1 °F /  -10.5 °C 5.5 °F /  -14.7 °C 30.20in /  1022.6hPa Calm   3.0mph /  4.8km/h 71% 0.00in /  0mm
12:05 13.2 °F /  -10.4 °C 5.2 °F /  -14.9 °C 30.19in /  1022.2hPa Calm   3.0mph /  4.8km/h 70% 0.00in /  0mm
12:10 13.2 °F /  -10.4 °C 5.2 °F /  -14.9 °C 30.19in /  1022.2hPa Calm   3.0mph /  4.8km/h 70% 0.00in /  0mm
12:15 13.1 °F /  -10.5 °C 5.2 °F /  -14.9 °C 30.19in /  1022.2hPa North 1.0mph /  1.6km/h 2.0mph /  3.2km/h 70% 0.00in /  0mm
12:20 13.1 °F /  -10.5 °C 5.2 °F /  -14.9 °C 30.19in /  1022.2hPa Calm   2.0mph /  3.2km/h 70% 0.00in /  0mm
12:25 13.3 °F /  -10.4 °C 5.3 °F /  -14.8 °C 30.19in /  1022.2hPa Calm   2.0mph /  3.2km/h 70% 0.00in /  0mm
12:30 13.0 °F /  -10.6 °C 5.1 °F /  -14.9 °C 30.19in /  1022.2hPa North 1.0mph /  1.6km/h 3.0mph /  4.8km/h 70% 0.00in /  0mm
12:35 12.8 °F /  -10.7 °C 5.2 °F /  -14.9 °C 30.19in /  1022.2hPa North 1.0mph /  1.6km/h 3.0mph /  4.8km/h 71% 0.00in /  0mm
12:40 12.8 °F /  -10.7 °C 5.2 °F /  -14.9 °C 30.20in /  1022.6hPa Calm   2.0mph /  3.2km/h 71% 0.00in /  0mm
12:45 13.3 °F /  -10.4 °C 5.7 °F /  -14.6 °C 30.20in /  1022.6hPa North 1.0mph /  1.6km/h 3.0mph /  4.8km/h 71% 0.00in /  0mm
12:50 13.5 °F /  -10.3 °C 5.5 °F /  -14.7 °C 30.20in /  1022.6hPa Calm   3.0mph /  4.8km/h 70% 0.00in /  0mm
13:00 13.9 °F /  -10.1 °C 5.9 °F /  -14.5 °C 30.20in /  1022.6hPa North 1.0mph /  1.6km/h 4.0mph /  6.4km/h 70% 0.00in /  0mm
13:05 13.5 °F /  -10.3 °C 5.8 °F /  -14.6 °C 30.19in /  1022.2hPa ENE 1.0mph /  1.6km/h 4.0mph /  6.4km/h 71% 0.00in /  0mm
13:10 13.6 °F /  -10.2 °C 5.6 °F /  -14.7 °C 30.20in /  1022.6hPa NNE 2.0mph /  3.2km/h 5.0mph /  8km/h 70% 0.00in /  0mm
13:15 13.7 °F /  -10.2 °C 5.7 °F /  -14.6 °C 30.20in /  1022.6hPa NE 3.0mph /  4.8km/h 6.0mph /  9.7km/h 70% 0.00in /  0mm
13:20 13.7 °F /  -10.2 °C 5.7 °F /  -14.6 °C 30.20in /  1022.6hPa NE 1.0mph /  1.6km/h 6.0mph /  9.7km/h 70% 0.00in /  0mm
13:25 13.7 °F /  -10.2 °C 5.7 °F /  -14.6 °C 30.20in /  1022.6hPa NE 1.0mph /  1.6km/h 3.0mph /  4.8km/h 70% 0.00in /  0mm
13:30 13.7 °F /  -10.2 °C 5.7 °F /  -14.6 °C 30.20in /  1022.6hPa NE 2.0mph /  3.2km/h 3.0mph /  4.8km/h 70% 0.00in /  0mm
13:40 13.9 °F /  -10.1 °C 5.9 °F /  -14.5 °C 30.20in /  1022.6hPa NE 1.0mph /  1.6km/h 4.0mph /  6.4km/h 70% 0.00in /  0mm
13:45 14.1 °F /  -9.9 °C 6.1 °F /  -14.4 °C 30.20in /  1022.6hPa Calm   3.0mph /  4.8km/h 70% 0.00in /  0mm
13:50 14.3 °F /  -9.8 °C 6.3 °F /  -14.3 °C 30.20in /  1022.6hPa NE 1.0mph /  1.6km/h 3.0mph /  4.8km/h 70% 0.00in /  0mm
13:55 14.5 °F /  -9.7 °C 6.5 °F /  -14.2 °C 30.20in /  1022.6hPa NE 1.0mph /  1.6km/h 3.0mph /  4.8km/h 70% 0.00in /  0mm
14:00 14.5 °F /  -9.7 °C 6.2 °F /  -14.3 °C 30.20in /  1022.6hPa NE 2.0mph /  3.2km/h 4.0mph /  6.4km/h 69% 0.00in /  0mm
14:05 14.5 °F /  -9.7 °C 6.2 °F /  -14.3 °C 30.20in /  1022.6hPa NE 1.0mph /  1.6km/h 4.0mph /  6.4km/h 69% 0.00in /  0mm
14:10 14.5 °F /  -9.7 °C 6.2 °F /  -14.3 °C 30.21in /  1022.9hPa Calm   4.0mph /  6.4km/h 69% 0.00in /  0mm
14:15 14.4 °F /  -9.8 °C 6.1 °F /  -14.4 °C 30.21in /  1022.9hPa Calm   3.0mph /  4.8km/h 69% 0.00in /  0mm
14:20 14.6 °F /  -9.7 °C 6.3 °F /  -14.3 °C 30.21in /  1022.9hPa NE 1.0mph /  1.6km/h 3.0mph /  4.8km/h 69% 0.00in /  0mm
14:25 14.8 °F /  -9.6 °C 6.5 °F /  -14.2 °C 30.21in /  1022.9hPa NE 1.0mph /  1.6km/h 3.0mph /  4.8km/h 69% 0.00in /  0mm
14:30 15.1 °F /  -9.4 °C 6.4 °F /  -14.2 °C 30.21in /  1022.9hPa Calm   3.0mph /  4.8km/h 68% 0.00in /  0mm
14:35 15.3 °F /  -9.3 °C 6.6 °F /  -14.1 °C 30.21in /  1022.9hPa Calm   3.0mph /  4.8km/h 68% 0.00in /  0mm
14:40 15.8 °F /  -9 °C 6.8 °F /  -14 °C 30.21in /  1022.9hPa NE 1.0mph /  1.6km/h 3.0mph /  4.8km/h 67% 0.00in /  0mm
14:45 15.9 °F /  -8.9 °C 6.5 °F /  -14.2 °C 30.21in /  1022.9hPa East 1.0mph /  1.6km/h 5.0mph /  8km/h 66% 0.00in /  0mm
14:50 16.2 °F /  -8.8 °C 6.8 °F /  -14 °C 30.21in /  1022.9hPa Calm   5.0mph /  8km/h 66% 0.00in /  0mm
15:00 16.9 °F /  -8.4 °C 6.8 °F /  -14 °C 30.21in /  1022.9hPa North 1.0mph /  1.6km/h 6.0mph /  9.7km/h 64% 0.00in /  0mm
15:05 16.8 °F /  -8.4 °C 6.4 °F /  -14.2 °C 30.21in /  1022.9hPa Calm   5.0mph /  8km/h 63% 0.00in /  0mm
15:10 16.7 °F /  -8.5 °C 6.3 °F /  -14.3 °C 30.21in /  1022.9hPa Calm   5.0mph /  8km/h 63% 0.00in /  0mm
15:15 16.4 °F /  -8.7 °C 6.0 °F /  -14.4 °C 30.21in /  1022.9hPa Calm   4.0mph /  6.4km/h 63% 0.00in /  0mm
15:20 16.4 °F /  -8.7 °C 6.3 °F /  -14.3 °C 30.21in /  1022.9hPa Calm   3.0mph /  4.8km/h 64% 0.00in /  0mm
15:25 16.1 °F /  -8.8 °C 5.7 °F /  -14.6 °C 30.21in /  1022.9hPa NE 2.0mph /  3.2km/h 4.0mph /  6.4km/h 63% 0.00in /  0mm
15:30 16.3 °F /  -8.7 °C 6.3 °F /  -14.3 °C 30.21in /  1022.9hPa Calm   4.0mph /  6.4km/h 64% 0.00in /  0mm
15:40 16.4 °F /  -8.7 °C 6.3 °F /  -14.3 °C 30.22in /  1023.2hPa Calm   4.0mph /  6.4km/h 64% 0.00in /  0mm
15:45 16.5 °F /  -8.6 °C 6.4 °F /  -14.2 °C 30.22in /  1023.2hPa Calm   4.0mph /  6.4km/h 64% 0.00in /  0mm
15:55 16.7 °F /  -8.5 °C 6.3 °F /  -14.3 °C 30.22in /  1023.2hPa Calm   2.0mph /  3.2km/h 63% 0.00in /  0mm
16:00 16.7 °F /  -8.5 °C 6.3 °F /  -14.3 °C 30.22in /  1023.2hPa Calm     63% 0.00in /  0mm
16:05 16.6 °F /  -8.6 °C 6.2 °F /  -14.3 °C 30.23in /  1023.6hPa Calm     63% 0.00in /  0mm
16:10 16.5 °F /  -8.6 °C 6.1 °F /  -14.4 °C 30.23in /  1023.6hPa NE 1.0mph /  1.6km/h 2.0mph /  3.2km/h 63% 0.00in /  0mm
16:15 16.0 °F /  -8.9 °C 6.0 °F /  -14.4 °C 30.23in /  1023.6hPa Calm   2.0mph /  3.2km/h 64% 0.00in /  0mm
16:20 15.7 °F /  -9.1 °C 5.7 °F /  -14.6 °C 30.23in /  1023.6hPa Calm   2.0mph /  3.2km/h 64% 0.00in /  0mm
16:25 15.3 °F /  -9.3 °C 5.6 °F /  -14.7 °C 30.24in /  1023.9hPa Calm   2.0mph /  3.2km/h 65% 0.00in /  0mm
16:30 14.9 °F /  -9.5 °C 5.6 °F /  -14.7 °C 30.24in /  1023.9hPa Calm     66% 0.00in /  0mm
16:40 13.4 °F /  -10.3 °C 4.5 °F /  -15.3 °C 30.24in /  1023.9hPa Calm   1.0mph /  1.6km/h 67% 0.00in /  0mm
16:45 12.8 °F /  -10.7 °C 4.2 °F /  -15.4 °C 30.24in /  1023.9hPa Calm     68% 0.00in /  0mm
16:50 12.0 °F /  -11.1 °C 3.8 °F /  -15.7 °C 30.24in /  1023.9hPa Calm     69% 0.00in /  0mm
16:55 11.5 °F /  -11.4 °C 3.6 °F /  -15.8 °C 30.25in /  1024.3hPa Calm     70% 0.00in /  0mm
17:00 11.0 °F /  -11.7 °C 3.7 °F /  -15.7 °C 30.25in /  1024.3hPa Calm     72% 0.00in /  0mm
17:05 10.5 °F /  -11.9 °C 3.3 °F /  -15.9 °C 30.25in /  1024.3hPa Calm     72% 0.00in /  0mm
17:10 9.9 °F /  -12.3 °C 3.0 °F /  -16.1 °C 30.25in /  1024.3hPa Calm     73% 0.00in /  0mm
17:15 9.6 °F /  -12.4 °C 3.0 °F /  -16.1 °C 30.26in /  1024.6hPa Calm     74% 0.00in /  0mm
17:20 9.4 °F /  -12.6 °C 3.1 °F /  -16.1 °C 30.26in /  1024.6hPa Calm     75% 0.00in /  0mm
17:30 9.2 °F /  -12.7 °C 2.9 °F /  -16.2 °C 30.27in /  1024.9hPa Calm     75% 0.00in /  0mm
17:40 8.8 °F /  -12.9 °C 2.5 °F /  -16.4 °C 30.27in /  1024.9hPa Calm     75% 0.00in /  0mm
17:45 8.5 °F /  -13.1 °C 2.2 °F /  -16.6 °C 30.27in /  1024.9hPa Calm     75% 0.00in /  0mm
17:50 8.3 °F /  -13.2 °C 2.3 °F /  -16.5 °C 30.27in /  1024.9hPa Calm     76% 0.00in /  0mm
17:55 8.1 °F /  -13.3 °C 2.1 °F /  -16.6 °C 30.27in /  1024.9hPa Calm     76% 0.00in /  0mm
18:00 7.9 °F /  -13.4 °C 1.9 °F /  -16.7 °C 30.28in /  1025.3hPa Calm     76% 0.00in /  0mm
18:05 7.8 °F /  -13.4 °C 1.8 °F /  -16.8 °C 30.28in /  1025.3hPa Calm     76% 0.00in /  0mm
18:10 7.7 °F /  -13.5 °C 1.7 °F /  -16.8 °C 30.28in /  1025.3hPa Calm     76% 0.00in /  0mm
18:15 7.6 °F /  -13.6 °C 1.9 °F /  -16.7 °C 30.28in /  1025.3hPa Calm     77% 0.00in /  0mm
18:20 7.8 °F /  -13.4 °C 2.1 °F /  -16.6 °C 30.28in /  1025.3hPa Calm     77% 0.00in /  0mm
18:25 8.0 °F /  -13.3 °C 2.3 °F /  -16.5 °C 30.28in /  1025.3hPa Calm     77% 0.00in /  0mm
18:35 7.8 °F /  -13.4 °C 2.1 °F /  -16.6 °C 30.29in /  1025.6hPa Calm     77% 0.00in /  0mm
18:40 7.8 °F /  -13.4 °C 2.1 °F /  -16.6 °C 30.28in /  1025.3hPa Calm     77% 0.00in /  0mm
18:45 7.6 °F /  -13.6 °C 1.6 °F /  -16.9 °C 30.28in /  1025.3hPa Calm     76% 0.00in /  0mm
18:50 7.2 °F /  -13.8 °C 1.2 °F /  -17.1 °C 30.28in /  1025.3hPa Calm     76% 0.00in /  0mm
18:55 7.1 °F /  -13.8 °C 1.4 °F /  -17 °C 30.28in /  1025.3hPa Calm     77% 0.00in /  0mm
19:00 6.9 °F /  -13.9 °C 1.2 °F /  -17.1 °C 30.29in /  1025.6hPa Calm     77% 0.00in /  0mm
19:05 6.5 °F /  -14.2 °C 0.8 °F /  -17.3 °C 30.29in /  1025.6hPa Calm     77% 0.00in /  0mm
19:10 6.3 °F /  -14.3 °C 0.6 °F /  -17.4 °C 30.29in /  1025.6hPa Calm     77% 0.00in /  0mm
19:15 6.1 °F /  -14.4 °C 0.4 °F /  -17.6 °C 30.30in /  1026hPa Calm     77% 0.00in /  0mm
19:20 6.2 °F /  -14.3 °C 0.5 °F /  -17.5 °C 30.30in /  1026hPa Calm     77% 0.00in /  0mm
19:25 6.1 °F /  -14.4 °C 0.4 °F /  -17.6 °C 30.30in /  1026hPa Calm     77% 0.00in /  0mm
19:30 6.0 °F /  -14.4 °C 0.3 °F /  -17.6 °C 30.30in /  1026hPa Calm     77% 0.00in /  0mm
19:35 6.3 °F /  -14.3 °C 0.9 °F /  -17.3 °C 30.30in /  1026hPa Calm     78% 0.00in /  0mm
19:45 6.9 °F /  -13.9 °C 1.2 °F /  -17.1 °C 30.31in /  1026.3hPa Calm   1.0mph /  1.6km/h 77% 0.00in /  0mm
19:50 7.1 °F /  -13.8 °C 1.1 °F /  -17.2 °C 30.31in /  1026.3hPa Calm     76% 0.00in /  0mm
19:55 7.1 °F /  -13.8 °C 1.1 °F /  -17.2 °C 30.31in /  1026.3hPa Calm     76% 0.00in /  0mm
20:00 6.7 °F /  -14.1 °C 0.5 °F /  -17.5 °C 30.32in /  1026.6hPa Calm     75% 0.00in /  0mm
20:05 5.6 °F /  -14.7 °C -0.6 °F /  -18.1 °C 30.32in /  1026.6hPa Calm     75% 0.00in /  0mm
20:10 4.8 °F /  -15.1 °C -1.1 °F /  -18.4 °C 30.32in /  1026.6hPa Calm     76% 0.00in /  0mm
20:15 4.2 °F /  -15.4 °C -1.7 °F /  -18.7 °C 30.32in /  1026.6hPa Calm     76% 0.00in /  0mm
20:20 4.1 °F /  -15.5 °C -1.5 °F /  -18.6 °C 30.33in /  1027hPa Calm     77% 0.00in /  0mm
20:25 4.1 °F /  -15.5 °C -1.2 °F /  -18.4 °C 30.33in /  1027hPa Calm     78% 0.00in /  0mm
20:35 4.2 °F /  -15.4 °C -0.9 °F /  -18.3 °C 30.33in /  1027hPa Calm     79% 0.00in /  0mm
20:40 3.8 °F /  -15.7 °C -1.3 °F /  -18.5 °C 30.33in /  1027hPa Calm     79% 0.00in /  0mm
20:45 3.8 °F /  -15.7 °C -1.3 °F /  -18.5 °C 30.33in /  1027hPa Calm     79% 0.00in /  0mm
20:50 3.7 °F /  -15.7 °C -1.1 °F /  -18.4 °C 30.33in /  1027hPa Calm     80% 0.00in /  0mm
20:55 3.8 °F /  -15.7 °C -1.0 °F /  -18.3 °C 30.33in /  1027hPa Calm     80% 0.00in /  0mm
21:00 4.1 °F /  -15.5 °C -0.4 °F /  -18 °C 30.33in /  1027hPa Calm     81% 0.00in /  0mm
21:05 4.2 °F /  -15.4 °C -0.3 °F /  -17.9 °C 30.34in /  1027.3hPa Calm     81% 0.00in /  0mm
21:10 3.9 °F /  -15.6 °C -0.9 °F /  -18.3 °C 30.34in /  1027.3hPa Calm     80% 0.00in /  0mm
21:15 3.8 °F /  -15.7 °C -0.7 °F /  -18.2 °C 30.35in /  1027.7hPa Calm     81% 0.00in /  0mm
21:20 3.6 °F /  -15.8 °C -1.2 °F /  -18.4 °C 30.35in /  1027.7hPa Calm     80% 0.00in /  0mm
21:25 3.3 °F /  -15.9 °C -1.2 °F /  -18.4 °C 30.35in /  1027.7hPa Calm     81% 0.00in /  0mm
21:30 3.2 °F /  -16 °C -1.3 °F /  -18.5 °C 30.36in /  1028hPa Calm     81% 0.00in /  0mm
21:35 3.2 °F /  -16 °C -1.3 °F /  -18.5 °C 30.36in /  1028hPa Calm     81% 0.00in /  0mm
21:45 2.8 °F /  -16.2 °C -1.7 °F /  -18.7 °C 30.36in /  1028hPa Calm     81% 0.00in /  0mm
21:55 2.5 °F /  -16.4 °C -2.0 °F /  -18.9 °C 30.37in /  1028.3hPa Calm     81% 0.00in /  0mm
22:00 2.8 °F /  -16.2 °C -1.7 °F /  -18.7 °C 30.36in /  1028hPa Calm     81% 0.00in /  0mm
22:05 2.8 °F /  -16.2 °C -1.7 °F /  -18.7 °C 30.36in /  1028hPa Calm     81% 0.00in /  0mm
22:10 3.0 °F /  -16.1 °C -1.5 °F /  -18.6 °C 30.36in /  1028hPa Calm     81% 0.00in /  0mm
22:15 2.8 °F /  -16.2 °C -1.7 °F /  -18.7 °C 30.36in /  1028hPa Calm     81% 0.00in /  0mm
22:20 2.8 °F /  -16.2 °C -1.7 °F /  -18.7 °C 30.37in /  1028.3hPa Calm     81% 0.00in /  0mm
22:25 3.0 °F /  -16.1 °C -1.5 °F /  -18.6 °C 30.37in /  1028.3hPa Calm     81% 0.00in /  0mm
22:30 2.8 °F /  -16.2 °C -1.7 °F /  -18.7 °C 30.38in /  1028.7hPa Calm     81% 0.00in /  0mm
22:35 2.6 °F /  -16.3 °C -1.9 °F /  -18.8 °C 30.37in /  1028.3hPa Calm     81% 0.00in /  0mm
22:40 2.4 °F /  -16.4 °C -2.1 °F /  -18.9 °C 30.38in /  1028.7hPa Calm     81% 0.00in /  0mm
22:45 2.4 °F /  -16.4 °C -2.1 °F /  -18.9 °C 30.37in /  1028.3hPa Calm     81% 0.00in /  0mm
22:50 2.6 °F /  -16.3 °C -1.9 °F /  -18.8 °C 30.37in /  1028.3hPa Calm     81% 0.00in /  0mm
22:55 2.6 °F /  -16.3 °C -1.9 °F /  -18.8 °C 30.37in /  1028.3hPa Calm     81% 0.00in /  0mm
23:00 2.6 °F /  -16.3 °C -1.9 °F /  -18.8 °C 30.37in /  1028.3hPa Calm     81% 0.00in /  0mm
23:05 2.6 °F /  -16.3 °C -1.9 °F /  -18.8 °C 30.37in /  1028.3hPa Calm     81% 0.00in /  0mm
23:10 2.6 °F /  -16.3 °C -1.9 °F /  -18.8 °C 30.37in /  1028.3hPa Calm     81% 0.00in /  0mm
23:15 2.4 °F /  -16.4 °C -2.1 °F /  -18.9 °C 30.37in /  1028.3hPa Calm     81% 0.00in /  0mm
23:20 2.3 °F /  -16.5 °C -2.2 °F /  -19 °C 30.37in /  1028.3hPa Calm     81% 0.00in /  0mm
23:25 1.8 °F /  -16.8 °C -2.9 °F /  -19.4 °C 30.37in /  1028.3hPa Calm     80% 0.00in /  0mm
23:30 1.1 °F /  -17.2 °C -3.6 °F /  -19.8 °C 30.37in /  1028.3hPa Calm     80% 0.00in /  0mm
23:35 0.6 °F /  -17.4 °C -4.4 °F /  -20.2 °C 30.37in /  1028.3hPa Calm     79% 0.00in /  0mm
23:45 0.1 °F /  -17.7 °C -4.6 °F /  -20.3 °C 30.38in /  1028.7hPa Calm     80% 0.00in /  0mm
23:50 0.5 °F /  -17.5 °C -4.2 °F /  -20.1 °C 30.38in /  1028.7hPa Calm     80% 0.00in /  0mm
23:55 0.9 °F /  -17.3 °C -3.6 °F /  -19.8 °C 30.38in /  1028.7hPa Calm     81% 0.00in /  0mm
Westford Weather
Compliments of Weather Underground

 
 
Current Radar Loop:

Copyright © WestfordWeather.net 2007-2014. All rights reserved.